createdAt,value
2023-03-30T00:02:23.198Z,8.70
2023-03-30T00:06:26.913Z,10.60
2023-03-30T00:10:31.004Z,8.80
2023-03-30T00:14:37.756Z,12.00
2023-03-30T00:18:41.471Z,12.80
2023-03-30T00:22:45.882Z,13.50
2023-03-30T00:26:49.501Z,10.00
2023-03-30T00:30:53.991Z,12.80
2023-03-30T00:34:57.702Z,8.50
2023-03-30T00:39:01.576Z,11.80
2023-03-30T00:43:07.651Z,13.00
2023-03-30T00:47:11.657Z,8.10
2023-03-30T00:51:16.297Z,9.60
2023-03-30T00:55:23.091Z,9.50
2023-03-30T00:59:27.045Z,9.80
2023-03-30T01:03:45.937Z,8.50
2023-03-30T01:07:50.106Z,9.00
2023-03-30T01:11:54.014Z,12.80
2023-03-30T01:16:03.897Z,11.10
2023-03-30T01:20:25.826Z,6.50
2023-03-30T01:25:06.660Z,7.70
2023-03-30T01:29:13.144Z,8.70
2023-03-30T01:33:55.384Z,8.30
2023-03-30T01:38:23.468Z,13.50
2023-03-30T01:43:13.208Z,6.80
2023-03-30T01:47:16.748Z,9.10
2023-03-30T01:51:24.276Z,10.00
2023-03-30T01:55:37.126Z,9.90
2023-03-30T01:59:48.589Z,6.00
2023-03-30T02:03:57.405Z,9.60
2023-03-30T02:08:07.974Z,12.80
2023-03-30T02:12:12.830Z,10.40
2023-03-30T02:16:22.786Z,9.50
2023-03-30T02:20:26.138Z,10.90
2023-03-30T02:24:32.540Z,8.00
2023-03-30T02:28:36.334Z,6.90
2023-03-30T02:32:46.634Z,8.90
2023-03-30T02:37:19.015Z,7.10
2023-03-30T02:41:47.762Z,9.30
2023-03-30T02:45:53.118Z,6.90
2023-03-30T02:50:06.264Z,9.60
2023-03-30T02:54:24.122Z,8.40
2023-03-30T02:58:37.072Z,8.90
2023-03-30T03:02:44.109Z,7.70
2023-03-30T03:06:48.511Z,8.20
2023-03-30T03:10:52.081Z,7.50
2023-03-30T03:14:55.423Z,9.20
2023-03-30T03:18:59.418Z,7.80
2023-03-30T03:23:02.727Z,8.50
2023-03-30T03:27:06.140Z,8.90
2023-03-30T03:31:09.427Z,9.10
2023-03-30T03:35:12.969Z,11.30
2023-03-30T03:39:16.364Z,7.70
2023-03-30T03:43:20.047Z,8.40
2023-03-30T03:47:23.297Z,11.00
2023-03-30T03:51:26.728Z,8.90
2023-03-30T03:55:30.759Z,7.40
2023-03-30T03:59:34.328Z,9.70
2023-03-30T04:03:37.535Z,11.30
2023-03-30T04:07:41.780Z,7.80
2023-03-30T04:11:45.149Z,8.20
2023-03-30T04:15:48.652Z,13.60
2023-03-30T04:19:54.018Z,11.90
2023-03-30T04:23:57.484Z,13.30
2023-03-30T04:28:01.200Z,14.40
2023-03-30T04:32:05.117Z,11.50
2023-03-30T04:36:09.104Z,10.70
2023-03-30T04:40:13.465Z,15.70
2023-03-30T04:44:20.610Z,49.10
2023-03-30T04:48:24.548Z,12.20
2023-03-30T04:52:28.298Z,12.40
2023-03-30T04:56:32.338Z,11.40
2023-03-30T05:00:35.604Z,9.90
2023-03-30T05:04:39.310Z,13.20
2023-03-30T05:08:42.570Z,12.00
2023-03-30T05:12:46.098Z,12.70
2023-03-30T05:16:49.747Z,10.90
2023-03-30T05:20:58.751Z,9.20
2023-03-30T05:25:02.412Z,9.10
2023-03-30T05:29:06.018Z,10.00
2023-03-30T05:33:10.253Z,13.40
2023-03-30T05:37:13.769Z,14.10
2023-03-30T05:41:17.594Z,17.30
2023-03-30T05:45:20.996Z,14.90
2023-03-30T05:49:24.307Z,12.80
2023-03-30T05:53:27.589Z,14.90
2023-03-30T05:57:31.372Z,14.70
2023-03-30T06:01:34.854Z,14.40
2023-03-30T06:05:40.094Z,15.40
2023-03-30T06:09:43.874Z,12.60
2023-03-30T06:13:48.822Z,13.70
2023-03-30T06:17:52.987Z,16.80
2023-03-30T06:21:56.614Z,10.30
2023-03-30T06:26:01.239Z,12.10
2023-03-30T06:30:04.955Z,13.70
2023-03-30T06:34:08.300Z,14.20
2023-03-30T06:38:11.538Z,11.50
2023-03-30T06:42:14.897Z,13.00
2023-03-30T06:46:18.643Z,11.60
2023-03-30T06:50:22.302Z,17.60
2023-03-30T06:54:25.812Z,15.20
2023-03-30T06:58:30.498Z,15.50
2023-03-30T07:02:34.199Z,11.60
2023-03-30T07:06:37.826Z,12.00
2023-03-30T07:10:41.417Z,15.30
2023-03-30T07:14:44.768Z,12.40
2023-03-30T07:18:48.262Z,12.50
2023-03-30T07:22:52.308Z,13.60
2023-03-30T07:26:55.938Z,12.60
2023-03-30T07:31:07.655Z,13.80
2023-03-30T07:35:11.508Z,11.30
2023-03-30T07:39:14.888Z,12.30
2023-03-30T07:43:18.189Z,14.30
2023-03-30T07:47:21.664Z,10.40
2023-03-30T07:51:27.832Z,20.30
2023-03-30T07:55:32.124Z,15.50
2023-03-30T07:59:35.994Z,15.50
2023-03-30T08:03:40.055Z,14.30
2023-03-30T08:07:43.993Z,14.00
2023-03-30T08:11:47.452Z,10.30
2023-03-30T08:15:52.872Z,12.60
2023-03-30T08:19:58.956Z,11.80
2023-03-30T08:24:02.483Z,13.00
2023-03-30T08:28:06.241Z,11.40
2023-03-30T08:32:09.728Z,9.40
2023-03-30T08:36:13.274Z,11.50
2023-03-30T08:40:19.366Z,11.90
2023-03-30T08:44:27.654Z,10.00
2023-03-30T08:48:38.070Z,8.90
2023-03-30T08:52:42.294Z,14.30
2023-03-30T08:56:59.786Z,13.30
2023-03-30T09:01:28.214Z,8.20
2023-03-30T09:05:37.950Z,9.30
2023-03-30T09:09:47.182Z,9.50
2023-03-30T09:13:52.176Z,10.70
2023-03-30T09:18:23.139Z,9.00
2023-03-30T09:22:32.670Z,8.20
2023-03-30T09:26:55.842Z,8.70
2023-03-30T09:31:18.221Z,9.80
2023-03-30T09:35:27.227Z,8.20
2023-03-30T09:39:34.303Z,6.50
2023-03-30T09:43:46.480Z,8.20
2023-03-30T09:47:49.873Z,11.50
2023-03-30T09:52:00.976Z,7.60
2023-03-30T09:56:17.018Z,13.40
2023-03-30T10:00:29.521Z,8.90
2023-03-30T10:04:32.853Z,7.20
2023-03-30T10:08:56.818Z,8.80
2023-03-30T10:13:06.736Z,8.60
2023-03-30T10:17:21.788Z,13.40
2023-03-30T10:21:28.357Z,12.60
2023-03-30T10:25:34.071Z,11.20
2023-03-30T10:29:37.715Z,11.40
2023-03-30T10:33:44.119Z,11.20
2023-03-30T10:37:50.328Z,12.40
2023-03-30T10:41:56.353Z,9.20
2023-03-30T10:46:23.443Z,8.90
2023-03-30T10:50:46.420Z,8.20
2023-03-30T10:55:11.236Z,9.40
2023-03-30T10:59:23.576Z,10.20
2023-03-30T11:03:32.918Z,10.20
2023-03-30T11:07:43.615Z,8.10
2023-03-30T11:11:55.674Z,13.70
2023-03-30T11:16:35.924Z,9.50
2023-03-30T11:20:59.380Z,9.20
2023-03-30T11:25:15.790Z,11.20
2023-03-30T11:29:28.825Z,10.10
2023-03-30T11:33:45.602Z,12.80
2023-03-30T11:38:09.635Z,10.50
2023-03-30T11:42:18.322Z,10.80
2023-03-30T11:46:30.410Z,17.50
2023-03-30T11:50:46.038Z,13.40
2023-03-30T11:55:16.984Z,10.40
2023-03-30T11:59:49.399Z,14.20
2023-03-30T12:04:08.898Z,9.70
2023-03-30T12:08:40.259Z,10.40
2023-03-30T12:12:45.884Z,10.10
2023-03-30T12:16:55.381Z,8.80
2023-03-30T12:21:20.507Z,12.50
2023-03-30T12:25:33.161Z,14.60
2023-03-30T12:34:07.596Z,5.60
2023-03-30T12:38:17.754Z,12.80
2023-03-30T12:42:27.143Z,9.50
2023-03-30T12:46:58.881Z,9.70
2023-03-30T12:51:14.158Z,7.70
2023-03-30T12:55:38.024Z,12.70
2023-03-30T12:59:56.443Z,7.70
2023-03-30T13:04:07.885Z,5.80
2023-03-30T13:08:41.646Z,6.30
2023-03-30T13:12:49.447Z,3.40
2023-03-30T13:16:53.453Z,5.30
2023-03-30T13:20:56.822Z,6.50
2023-03-30T13:25:22.275Z,3.10
2023-03-30T13:29:31.100Z,6.10
2023-03-30T13:33:38.911Z,3.30
2023-03-30T13:38:16.182Z,4.60
2023-03-30T13:42:42.538Z,7.90
2023-03-30T13:47:06.799Z,5.00
2023-03-30T13:51:16.734Z,7.20
2023-03-30T13:55:33.650Z,8.30
2023-03-30T13:59:42.875Z,5.50
2023-03-30T14:04:01.031Z,16.30
2023-03-30T14:08:10.426Z,18.70
2023-03-30T14:12:15.221Z,8.10
2023-03-30T14:16:22.885Z,7.00
2023-03-30T14:20:46.966Z,8.90
2023-03-30T14:24:58.716Z,10.60
2023-03-30T14:29:21.047Z,6.10
2023-03-30T14:33:35.061Z,4.10
2023-03-30T14:37:38.376Z,6.70
2023-03-30T14:41:42.607Z,3.80
2023-03-30T14:45:46.176Z,5.80
2023-03-30T14:49:52.015Z,6.80
2023-03-30T14:53:56.161Z,4.40
2023-03-30T14:57:59.402Z,3.10
2023-03-30T15:02:03.946Z,7.70
2023-03-30T15:06:08.492Z,4.50
2023-03-30T15:10:22.553Z,6.10
2023-03-30T15:14:27.355Z,7.40
2023-03-30T15:18:33.924Z,6.90
2023-03-30T15:22:44.906Z,6.50
2023-03-30T15:26:50.256Z,17.00
2023-03-30T15:30:54.806Z,15.00
2023-03-30T15:35:14.787Z,8.10
2023-03-30T15:39:28.050Z,8.30
2023-03-30T15:43:33.792Z,6.10
2023-03-30T15:47:38.975Z,4.80
2023-03-30T15:51:53.766Z,3.50
2023-03-30T15:55:59.773Z,4.30
2023-03-30T16:00:12.875Z,6.50
2023-03-30T16:04:19.163Z,4.40
2023-03-30T16:08:23.014Z,4.00
2023-03-30T16:12:29.816Z,4.30
2023-03-30T16:16:35.232Z,4.60
2023-03-30T16:20:39.161Z,4.70
2023-03-30T16:24:43.767Z,3.40
2023-03-30T16:28:51.374Z,5.80
2023-03-30T16:32:55.242Z,5.40
2023-03-30T16:36:58.829Z,6.60
2023-03-30T16:41:04.083Z,4.40
2023-03-30T16:45:08.618Z,5.20
2023-03-30T16:49:17.974Z,5.80
2023-03-30T16:53:21.649Z,3.70
2023-03-30T16:57:25.588Z,3.80
2023-03-30T17:01:30.470Z,3.80
2023-03-30T17:05:34.422Z,5.90
2023-03-30T17:09:38.273Z,5.90
2023-03-30T17:13:43.328Z,8.20
2023-03-30T17:17:48.089Z,11.80
2023-03-30T17:21:52.413Z,7.70
2023-03-30T17:25:58.686Z,7.60
2023-03-30T17:34:07.530Z,7.80
2023-03-30T17:38:12.869Z,6.50
2023-03-30T17:42:19.088Z,8.50
2023-03-30T17:46:25.326Z,5.30
2023-03-30T17:50:49.839Z,6.70
2023-03-30T17:54:54.345Z,7.50
2023-03-30T18:03:22.672Z,5.40
2023-03-30T18:08:14.768Z,5.90
2023-03-30T18:12:18.331Z,4.90
2023-03-30T18:16:24.489Z,4.40
2023-03-30T18:24:35.991Z,7.20
2023-03-30T18:28:42.555Z,3.10
2023-03-30T18:32:47.411Z,5.00
2023-03-30T18:36:51.132Z,4.00
2023-03-30T18:40:58.085Z,4.10
2023-03-30T18:45:01.646Z,2.40
2023-03-30T18:49:05.006Z,2.60
2023-03-30T18:53:13.707Z,4.40
2023-03-30T18:57:17.077Z,5.30
2023-03-30T19:01:20.554Z,3.40
2023-03-30T19:05:26.535Z,3.20
2023-03-30T19:09:42.112Z,3.10
2023-03-30T19:13:47.351Z,4.20
2023-03-30T19:17:51.621Z,3.00
2023-03-30T19:21:58.302Z,2.00
2023-03-30T19:26:01.720Z,4.20
2023-03-30T19:30:06.185Z,3.50
2023-03-30T19:34:09.423Z,9.50
2023-03-30T19:38:13.701Z,3.60
2023-03-30T19:42:17.049Z,3.80
2023-03-30T19:46:20.864Z,6.30
2023-03-30T19:50:25.535Z,7.90
2023-03-30T19:54:29.560Z,5.20
2023-03-30T19:58:33.056Z,6.00
2023-03-30T20:02:36.844Z,8.60
2023-03-30T20:06:40.328Z,3.90
2023-03-30T20:10:48.390Z,8.50
2023-03-30T20:14:52.176Z,4.20
2023-03-30T20:18:58.118Z,3.50
2023-03-30T20:23:01.996Z,3.10
2023-03-30T20:27:05.981Z,3.40
2023-03-30T20:31:10.131Z,4.40
2023-03-30T20:35:13.836Z,2.90
2023-03-30T20:39:17.624Z,7.10
2023-03-30T20:43:22.136Z,2.80
2023-03-30T20:47:30.581Z,2.40
2023-03-30T20:51:37.682Z,3.00
2023-03-30T20:55:43.082Z,3.20
2023-03-30T20:59:49.093Z,4.30
2023-03-30T21:04:00.567Z,4.80
2023-03-30T21:08:04.080Z,2.10
2023-03-30T21:12:08.848Z,3.90
2023-03-30T21:16:12.622Z,5.60
2023-03-30T21:20:16.139Z,3.70
2023-03-30T21:24:19.555Z,2.50
2023-03-30T21:28:24.662Z,4.60
2023-03-30T21:32:30.751Z,3.00
2023-03-30T21:36:34.942Z,5.80
2023-03-30T21:40:38.347Z,5.30
2023-03-30T21:44:41.706Z,4.50
2023-03-30T21:48:46.421Z,2.70
2023-03-30T21:52:49.780Z,7.10
2023-03-30T21:56:53.060Z,4.10
2023-03-30T22:01:08.980Z,1.90
2023-03-30T22:05:15.094Z,3.00
2023-03-30T22:09:18.919Z,5.10
2023-03-30T22:13:22.222Z,6.00
2023-03-30T22:17:35.199Z,6.10
2023-03-30T22:21:38.508Z,7.80
2023-03-30T22:25:42.785Z,4.40
2023-03-30T22:29:46.602Z,6.10
2023-03-30T22:33:49.989Z,4.00
2023-03-30T22:37:53.941Z,3.00
2023-03-30T22:41:58.937Z,2.60
2023-03-30T22:46:04.370Z,2.20
2023-03-30T22:50:08.149Z,2.00
2023-03-30T22:54:11.377Z,1.60
2023-03-30T22:58:16.004Z,2.90
2023-03-30T23:02:19.292Z,2.90
2023-03-30T23:06:22.779Z,3.30
2023-03-30T23:10:28.174Z,4.30
2023-03-30T23:14:54.123Z,2.90
2023-03-30T23:23:48.974Z,3.40
2023-03-30T23:37:33.050Z,6.90
2023-03-30T23:42:10.002Z,3.40
2023-03-30T23:50:38.098Z,3.70
2023-03-30T23:55:26.045Z,1.80
